createdAt,value
2022-11-19T00:01:26.731Z,-1.40
2022-11-19T00:03:53.985Z,-1.40
2022-11-19T00:06:23.829Z,-1.40
2022-11-19T00:08:51.152Z,-1.40
2022-11-19T00:11:41.696Z,-1.40
2022-11-19T00:14:12.738Z,-1.50
2022-11-19T00:16:42.087Z,-1.50
2022-11-19T00:19:11.272Z,-1.40
2022-11-19T00:21:38.616Z,-1.50
2022-11-19T00:24:06.044Z,-1.50
2022-11-19T00:26:33.440Z,-1.50
2022-11-19T00:29:01.801Z,-1.50
2022-11-19T00:31:29.065Z,-1.50
2022-11-19T00:33:56.192Z,-1.50
2022-11-19T00:36:23.889Z,-1.50
2022-11-19T00:38:51.295Z,-1.60
2022-11-19T00:41:18.620Z,-1.60
2022-11-19T00:43:49.154Z,-1.60
2022-11-19T00:46:22.549Z,-1.60
2022-11-19T00:48:51.079Z,-1.60
2022-11-19T00:51:19.831Z,-1.70
2022-11-19T00:53:47.566Z,-1.70
2022-11-19T00:56:18.071Z,-1.70
2022-11-19T00:58:45.739Z,-1.70
2022-11-19T01:01:14.982Z,-1.70
2022-11-19T01:03:43.013Z,-1.80
2022-11-19T01:06:14.244Z,-1.80
2022-11-19T01:08:46.159Z,-1.80
2022-11-19T01:11:20.731Z,-1.80
2022-11-19T01:13:48.735Z,-1.90
2022-11-19T01:16:21.966Z,-1.90
2022-11-19T01:18:50.672Z,-1.90
2022-11-19T01:21:19.937Z,-2.00
2022-11-19T01:23:47.694Z,-2.00
2022-11-19T01:26:16.208Z,-2.00
2022-11-19T01:28:44.003Z,-2.00
2022-11-19T01:31:13.736Z,-2.00
2022-11-19T01:33:41.418Z,-2.00
2022-11-19T01:36:13.736Z,-2.00
2022-11-19T01:38:44.202Z,-2.00
2022-11-19T01:41:11.577Z,-2.10
2022-11-19T01:43:50.898Z,-2.10
2022-11-19T01:46:20.749Z,-2.10
2022-11-19T01:49:12.815Z,-2.10
2022-11-19T01:51:49.203Z,-2.10
2022-11-19T01:54:44.290Z,-2.10
2022-11-19T01:57:15.748Z,-2.10
2022-11-19T01:59:44.769Z,-2.10
2022-11-19T02:02:12.466Z,-2.10
2022-11-19T02:04:41.066Z,-2.20
2022-11-19T02:07:09.927Z,-2.20
2022-11-19T02:09:37.885Z,-2.20
2022-11-19T02:13:06.412Z,-2.20
2022-11-19T02:15:53.907Z,-2.20
2022-11-19T02:18:31.726Z,-2.20
2022-11-19T02:21:15.729Z,-2.30
2022-11-19T02:24:16.476Z,-2.30
2022-11-19T02:27:09.824Z,-2.30
2022-11-19T02:30:03.099Z,-2.30
2022-11-19T02:32:51.729Z,-2.40
2022-11-19T02:35:48.158Z,-2.40
2022-11-19T02:38:28.354Z,-2.40
2022-11-19T02:41:30.362Z,-2.40
2022-11-19T02:44:22.560Z,-2.40
2022-11-19T02:46:53.364Z,-2.40
2022-11-19T02:49:24.501Z,-2.50
2022-11-19T02:51:51.882Z,-2.50
2022-11-19T02:54:19.469Z,-2.50
2022-11-19T02:56:52.829Z,-2.60
2022-11-19T02:59:58.696Z,-2.60
2022-11-19T03:02:50.425Z,-2.60
2022-11-19T03:05:22.160Z,-2.60
2022-11-19T03:07:50.647Z,-2.60
2022-11-19T03:10:21.580Z,-2.60
2022-11-19T03:13:43.680Z,-2.60
2022-11-19T03:16:39.550Z,-2.60
2022-11-19T03:19:17.238Z,-2.60
2022-11-19T03:21:58.763Z,-2.70
2022-11-19T03:24:37.969Z,-2.70
2022-11-19T03:27:15.669Z,-2.70
2022-11-19T03:29:47.227Z,-2.70
2022-11-19T03:32:20.201Z,-2.70
2022-11-19T03:34:50.743Z,-2.70
2022-11-19T03:37:21.620Z,-2.70
2022-11-19T03:39:51.543Z,-2.70
2022-11-19T03:42:20.668Z,-2.80
2022-11-19T03:44:52.024Z,-2.80
2022-11-19T03:47:24.899Z,-2.80
2022-11-19T03:50:01.112Z,-2.70
2022-11-19T03:52:28.529Z,-2.70
2022-11-19T03:54:55.797Z,-2.70
2022-11-19T03:57:25.472Z,-2.70
2022-11-19T03:59:52.575Z,-2.70
2022-11-19T04:02:20.013Z,-2.70
2022-11-19T04:04:47.090Z,-2.70
2022-11-19T04:07:20.754Z,-2.70
2022-11-19T04:09:49.161Z,-2.70
2022-11-19T04:12:19.307Z,-2.70
2022-11-19T04:14:46.973Z,-2.70
2022-11-19T04:17:14.648Z,-2.70
2022-11-19T04:19:41.982Z,-2.70
2022-11-19T04:22:10.089Z,-2.70
2022-11-19T04:24:37.626Z,-2.70
2022-11-19T04:27:04.962Z,-2.70
2022-11-19T04:29:32.228Z,-2.70
2022-11-19T04:32:01.028Z,-2.70
2022-11-19T04:34:28.226Z,-2.70
2022-11-19T04:36:55.364Z,-2.70
2022-11-19T04:39:22.867Z,-2.70
2022-11-19T04:41:50.255Z,-2.70
2022-11-19T04:44:17.534Z,-2.70
2022-11-19T04:46:44.710Z,-2.70
2022-11-19T04:49:11.868Z,-2.80
2022-11-19T04:51:39.089Z,-2.80
2022-11-19T04:54:08.828Z,-2.80
2022-11-19T04:56:37.268Z,-2.80
2022-11-19T04:59:04.628Z,-2.80
2022-11-19T05:01:31.951Z,-2.80
2022-11-19T05:03:59.331Z,-2.90
2022-11-19T05:06:26.393Z,-3.00
2022-11-19T05:08:53.575Z,-3.10
2022-11-19T05:11:20.912Z,-3.10
2022-11-19T05:13:47.917Z,-3.10
2022-11-19T05:16:15.222Z,-3.10
2022-11-19T05:18:42.487Z,-3.10
2022-11-19T05:21:09.943Z,-3.10
2022-11-19T05:23:37.053Z,-3.10
2022-11-19T05:26:04.285Z,-3.20
2022-11-19T05:28:39.086Z,-3.20
2022-11-19T05:31:07.818Z,-3.20
2022-11-19T05:33:35.005Z,-3.20
2022-11-19T05:36:03.127Z,-3.20
2022-11-19T05:38:30.674Z,-3.10
2022-11-19T05:40:57.981Z,-3.10
2022-11-19T05:43:25.462Z,-3.10
2022-11-19T05:45:52.491Z,-3.10
2022-11-19T05:48:20.197Z,-3.00
2022-11-19T05:50:47.656Z,-3.00
2022-11-19T05:53:14.878Z,-2.90
2022-11-19T05:55:42.279Z,-2.90
2022-11-19T05:58:09.491Z,-2.90
2022-11-19T06:00:36.645Z,-2.80
2022-11-19T06:03:04.072Z,-2.80
2022-11-19T06:05:34.729Z,-2.80
2022-11-19T06:08:06.054Z,-2.80
2022-11-19T06:10:33.289Z,-2.80
2022-11-19T06:13:00.515Z,-2.80
2022-11-19T06:15:27.843Z,-2.80
2022-11-19T06:17:56.949Z,-2.80
2022-11-19T06:20:24.354Z,-2.80
2022-11-19T06:22:52.217Z,-2.70
2022-11-19T06:25:19.615Z,-2.70
2022-11-19T06:27:49.890Z,-2.60
2022-11-19T06:30:17.094Z,-2.60
2022-11-19T06:32:44.646Z,-2.50
2022-11-19T06:35:14.176Z,-2.50
2022-11-19T06:37:41.702Z,-2.50
2022-11-19T06:40:09.575Z,-2.40
2022-11-19T06:42:36.739Z,-2.40
2022-11-19T06:45:05.485Z,-2.30
2022-11-19T06:47:33.594Z,-2.30
2022-11-19T06:50:00.771Z,-2.20
2022-11-19T06:52:28.358Z,-2.10
2022-11-19T06:54:55.597Z,-2.10
2022-11-19T06:57:22.820Z,-2.10
2022-11-19T06:59:50.031Z,-2.00
2022-11-19T07:02:21.232Z,-2.00
2022-11-19T07:04:49.004Z,-1.90
2022-11-19T07:07:16.371Z,-1.90
2022-11-19T07:09:43.532Z,-1.80
2022-11-19T07:12:10.778Z,-1.80
2022-11-19T07:14:37.979Z,-1.70
2022-11-19T07:17:06.699Z,-1.70
2022-11-19T07:19:34.174Z,-1.60
2022-11-19T07:22:01.427Z,-1.60
2022-11-19T07:24:28.674Z,-1.50
2022-11-19T07:26:56.871Z,-1.50
2022-11-19T07:29:24.264Z,-1.40
2022-11-19T07:31:53.434Z,-1.40
2022-11-19T07:34:20.810Z,-1.30
2022-11-19T07:36:48.704Z,-1.30
2022-11-19T07:39:16.745Z,-1.20
2022-11-19T07:42:02.607Z,-1.20
2022-11-19T07:44:29.957Z,-1.10
2022-11-19T07:46:57.079Z,-1.10
2022-11-19T07:49:25.195Z,-1.00
2022-11-19T07:51:53.162Z,-1.00
2022-11-19T07:54:20.485Z,-0.90
2022-11-19T07:56:47.658Z,-0.90
2022-11-19T07:59:14.954Z,-0.80
2022-11-19T08:01:42.463Z,-0.80
2022-11-19T08:04:09.984Z,-0.70
2022-11-19T08:06:37.655Z,-0.70
2022-11-19T08:09:05.970Z,-0.60
2022-11-19T08:11:33.567Z,-0.60
2022-11-19T08:14:03.759Z,-0.60
2022-11-19T08:16:52.024Z,-0.50
2022-11-19T08:19:19.936Z,-0.50
2022-11-19T08:21:48.175Z,-0.40
2022-11-19T08:24:18.121Z,-0.40
2022-11-19T08:26:46.516Z,-0.40
2022-11-19T08:29:16.662Z,-0.30
2022-11-19T08:31:45.976Z,-0.30
2022-11-19T08:34:13.338Z,-0.20
2022-11-19T08:36:40.634Z,-0.20
2022-11-19T08:39:11.549Z,-0.10
2022-11-19T08:41:57.302Z,-0.10
2022-11-19T08:44:24.775Z,0.00
2022-11-19T08:46:52.343Z,0.00
2022-11-19T08:49:19.729Z,0.00
2022-11-19T08:51:46.994Z,0.00
2022-11-19T08:54:14.240Z,0.00
2022-11-19T08:56:41.462Z,0.00
2022-11-19T08:59:08.895Z,0.00
2022-11-19T09:01:36.051Z,0.00
2022-11-19T09:04:03.538Z,0.00
2022-11-19T09:06:30.844Z,0.00
2022-11-19T09:08:58.640Z,0.00
2022-11-19T09:11:25.973Z,0.00
2022-11-19T09:13:53.188Z,0.10
2022-11-19T09:16:20.488Z,0.10
2022-11-19T09:18:47.651Z,0.10
2022-11-19T09:21:16.949Z,0.10
2022-11-19T09:23:44.247Z,0.10
2022-11-19T09:26:16.388Z,0.10
2022-11-19T09:28:44.256Z,0.10
2022-11-19T09:31:17.638Z,0.10
2022-11-19T09:33:47.810Z,0.20
2022-11-19T09:36:16.071Z,0.20
2022-11-19T09:38:46.056Z,0.30
2022-11-19T09:41:47.902Z,0.30
2022-11-19T09:44:36.127Z,0.40
2022-11-19T09:47:07.549Z,0.50
2022-11-19T09:50:03.094Z,0.50
2022-11-19T09:52:34.048Z,0.60
2022-11-19T09:55:02.319Z,0.70
2022-11-19T09:57:39.821Z,0.80
2022-11-19T10:00:09.897Z,0.80
2022-11-19T10:02:37.174Z,0.90
2022-11-19T10:05:04.849Z,1.00
2022-11-19T10:07:37.836Z,1.10
2022-11-19T10:10:35.854Z,1.10
2022-11-19T10:13:44.722Z,1.30
2022-11-19T10:16:18.712Z,1.30
2022-11-19T10:19:08.555Z,1.40
2022-11-19T10:22:00.482Z,1.50
2022-11-19T10:24:36.466Z,1.50
2022-11-19T10:27:12.766Z,1.60
2022-11-19T10:29:40.698Z,1.60
2022-11-19T10:32:23.923Z,1.70
2022-11-19T10:34:54.442Z,1.70
2022-11-19T10:37:24.236Z,1.80
2022-11-19T10:39:58.381Z,1.90
2022-11-19T10:42:37.274Z,1.90
2022-11-19T10:45:25.698Z,2.00
2022-11-19T10:48:04.574Z,2.10
2022-11-19T10:50:34.827Z,2.10
2022-11-19T10:53:25.085Z,2.20
2022-11-19T10:55:56.591Z,2.30
2022-11-19T10:58:38.450Z,2.40
2022-11-19T11:01:31.450Z,2.40
2022-11-19T11:04:12.146Z,2.50
2022-11-19T11:07:00.315Z,2.60
2022-11-19T11:09:42.533Z,2.70
2022-11-19T11:12:36.857Z,2.80
2022-11-19T11:15:26.082Z,2.90
2022-11-19T11:18:09.453Z,3.00
2022-11-19T11:20:38.985Z,3.10
2022-11-19T11:23:21.784Z,3.20
2022-11-19T11:26:10.714Z,3.30
2022-11-19T11:29:01.728Z,3.30
2022-11-19T11:31:40.831Z,3.40
2022-11-19T11:34:26.268Z,3.40
2022-11-19T11:36:54.754Z,3.50
2022-11-19T11:39:37.611Z,3.50
2022-11-19T11:42:07.263Z,3.50
2022-11-19T11:44:47.738Z,3.60
2022-11-19T11:47:30.890Z,3.60
2022-11-19T11:50:14.694Z,3.60
2022-11-19T11:52:46.082Z,3.70
2022-11-19T11:55:31.965Z,3.70
2022-11-19T11:58:05.473Z,3.70
2022-11-19T12:00:43.084Z,3.80
2022-11-19T12:03:14.836Z,3.80
2022-11-19T12:05:59.670Z,3.90
2022-11-19T12:08:45.184Z,3.90
2022-11-19T12:11:20.101Z,3.90
2022-11-19T12:13:54.265Z,3.90
2022-11-19T12:17:00.336Z,4.00
2022-11-19T12:19:33.726Z,4.00
2022-11-19T12:22:28.375Z,4.00
2022-11-19T12:25:08.621Z,4.00
2022-11-19T12:27:54.542Z,4.10
2022-11-19T12:30:25.880Z,4.10
2022-11-19T12:33:20.420Z,4.10
2022-11-19T12:36:14.440Z,4.20
2022-11-19T12:39:16.851Z,4.20
2022-11-19T12:41:57.422Z,4.20
2022-11-19T12:44:24.479Z,4.20
2022-11-19T12:47:08.471Z,4.20
2022-11-19T12:49:58.957Z,4.20
2022-11-19T12:53:14.499Z,4.20
2022-11-19T12:56:15.980Z,4.20
2022-11-19T12:59:27.655Z,4.20
2022-11-19T13:01:55.860Z,4.20
2022-11-19T13:04:48.974Z,4.20
2022-11-19T13:07:25.550Z,4.30
2022-11-19T13:10:01.262Z,4.30
2022-11-19T13:12:37.934Z,4.30
2022-11-19T13:15:10.288Z,4.30
2022-11-19T13:17:44.693Z,4.30
2022-11-19T13:20:25.355Z,4.30
2022-11-19T13:23:01.674Z,4.30
2022-11-19T13:26:09.702Z,4.30
2022-11-19T13:28:56.043Z,4.30
2022-11-19T13:31:47.695Z,4.30
2022-11-19T13:34:30.756Z,4.30
2022-11-19T13:37:22.153Z,4.30
2022-11-19T13:39:56.283Z,4.30
2022-11-19T13:42:42.806Z,4.30
2022-11-19T13:45:17.428Z,4.30
2022-11-19T13:47:57.911Z,4.30
2022-11-19T13:50:46.004Z,4.30
2022-11-19T13:53:26.931Z,4.30
2022-11-19T13:55:58.306Z,4.30
2022-11-19T13:58:38.651Z,4.30
2022-11-19T14:01:09.146Z,4.30
2022-11-19T14:03:45.421Z,4.30
2022-11-19T14:06:34.211Z,4.30
2022-11-19T14:09:25.266Z,4.30
2022-11-19T14:12:34.332Z,4.30
2022-11-19T14:15:45.492Z,4.30
2022-11-19T14:18:47.120Z,4.30
2022-11-19T14:21:48.225Z,4.30
2022-11-19T14:24:45.786Z,4.30
2022-11-19T14:27:31.553Z,4.30
2022-11-19T14:30:17.272Z,4.30
2022-11-19T14:32:52.569Z,4.30
2022-11-19T14:35:26.157Z,4.30
2022-11-19T14:38:12.619Z,4.30
2022-11-19T14:40:44.027Z,4.30
2022-11-19T14:43:35.543Z,4.30
2022-11-19T14:46:09.360Z,4.20
2022-11-19T14:48:39.628Z,4.20
2022-11-19T14:51:12.384Z,4.30
2022-11-19T14:53:51.250Z,4.30
2022-11-19T14:56:21.294Z,4.30
2022-11-19T14:58:59.770Z,4.30
2022-11-19T15:01:26.809Z,4.30
2022-11-19T15:03:58.771Z,4.30
2022-11-19T15:06:26.740Z,4.20
2022-11-19T15:09:00.898Z,4.20
2022-11-19T15:11:56.011Z,4.20
2022-11-19T15:14:36.841Z,4.20
2022-11-19T15:17:08.176Z,4.20
2022-11-19T15:19:57.366Z,4.20
2022-11-19T15:22:55.780Z,4.20
2022-11-19T15:25:54.230Z,4.20
2022-11-19T15:28:34.096Z,4.20
2022-11-19T15:31:21.290Z,4.10
2022-11-19T15:34:09.837Z,4.10
2022-11-19T15:36:46.032Z,4.10
2022-11-19T15:39:18.649Z,4.00
2022-11-19T15:42:09.457Z,4.00
2022-11-19T15:44:55.882Z,4.00
2022-11-19T15:47:48.800Z,4.00
2022-11-19T15:50:20.924Z,4.00
2022-11-19T15:53:19.506Z,3.90
2022-11-19T15:56:00.089Z,3.90
2022-11-19T15:58:49.670Z,3.90
2022-11-19T16:01:23.702Z,3.90
2022-11-19T16:03:53.077Z,3.80
2022-11-19T16:06:31.851Z,3.80
2022-11-19T16:09:05.079Z,3.80
2022-11-19T16:11:55.303Z,3.70
2022-11-19T16:14:45.934Z,3.70
2022-11-19T16:17:43.178Z,3.70
2022-11-19T16:20:10.912Z,3.60
2022-11-19T16:22:58.594Z,3.60
2022-11-19T16:25:35.690Z,3.50
2022-11-19T16:28:13.745Z,3.50
2022-11-19T16:30:52.467Z,3.50
2022-11-19T16:33:28.689Z,3.50
2022-11-19T16:36:20.035Z,3.50
2022-11-19T16:38:52.517Z,3.50
2022-11-19T16:41:41.117Z,3.40
2022-11-19T16:44:21.520Z,3.40
2022-11-19T16:46:49.338Z,3.40
2022-11-19T16:49:53.185Z,3.40
2022-11-19T16:52:44.326Z,3.40
2022-11-19T16:55:26.446Z,3.40
2022-11-19T16:57:57.213Z,3.40
2022-11-19T17:00:36.635Z,3.40
2022-11-19T17:03:29.415Z,3.40
2022-11-19T17:06:00.529Z,3.40
2022-11-19T17:08:37.093Z,3.40
2022-11-19T17:11:33.017Z,3.40
2022-11-19T17:14:13.936Z,3.30
2022-11-19T17:16:46.348Z,3.40
2022-11-19T17:19:34.060Z,3.30
2022-11-19T17:22:07.477Z,3.30
2022-11-19T17:24:42.963Z,3.30
2022-11-19T17:27:33.818Z,3.20
2022-11-19T17:30:20.167Z,3.20
2022-11-19T17:32:57.352Z,3.20
2022-11-19T17:35:44.411Z,3.20
2022-11-19T17:38:20.245Z,3.20
2022-11-19T17:40:52.213Z,3.10
2022-11-19T17:43:42.828Z,3.10
2022-11-19T17:46:10.771Z,3.10
2022-11-19T17:48:41.246Z,3.10
2022-11-19T17:51:17.209Z,3.10
2022-11-19T17:53:45.104Z,3.00
2022-11-19T17:56:24.010Z,3.10
2022-11-19T17:58:51.273Z,3.10
2022-11-19T18:01:18.905Z,3.10
2022-11-19T18:03:47.874Z,3.10
2022-11-19T18:06:16.962Z,3.00
2022-11-19T18:08:44.878Z,3.00
2022-11-19T18:11:24.188Z,3.10
2022-11-19T18:13:55.381Z,3.10
2022-11-19T18:16:24.642Z,3.00
2022-11-19T18:18:52.340Z,3.10
2022-11-19T18:21:21.540Z,3.00
2022-11-19T18:23:50.610Z,3.00
2022-11-19T18:26:25.200Z,3.00
2022-11-19T18:28:52.542Z,3.00
2022-11-19T18:31:22.868Z,3.00
2022-11-19T18:33:50.617Z,2.90
2022-11-19T18:36:20.751Z,2.90
2022-11-19T18:38:48.287Z,3.00
2022-11-19T18:41:19.137Z,2.90
2022-11-19T18:44:04.740Z,3.00
2022-11-19T18:46:31.846Z,3.00
2022-11-19T18:48:58.953Z,2.90
2022-11-19T18:51:29.002Z,3.00
2022-11-19T18:53:56.138Z,2.90
2022-11-19T18:56:23.539Z,3.00
2022-11-19T18:58:50.797Z,2.90
2022-11-19T19:01:18.295Z,2.90
2022-11-19T19:03:46.016Z,2.90
2022-11-19T19:06:13.198Z,2.90
2022-11-19T19:08:40.536Z,2.90
2022-11-19T19:11:27.519Z,2.90
2022-11-19T19:13:56.576Z,3.00
2022-11-19T19:16:23.832Z,3.00
2022-11-19T19:18:51.067Z,3.00
2022-11-19T19:21:20.824Z,3.00
2022-11-19T19:23:48.586Z,3.00
2022-11-19T19:26:17.686Z,3.00
2022-11-19T19:28:50.024Z,3.00
2022-11-19T19:31:18.044Z,2.90
2022-11-19T19:33:48.101Z,2.90
2022-11-19T19:36:16.651Z,2.90
2022-11-19T19:38:44.468Z,2.90
2022-11-19T19:41:15.379Z,2.90
2022-11-19T19:43:42.687Z,2.90
2022-11-19T19:46:16.110Z,2.90
2022-11-19T19:48:52.067Z,2.90
2022-11-19T19:51:21.395Z,2.90
2022-11-19T19:53:49.374Z,2.90
2022-11-19T19:56:19.085Z,2.90
2022-11-19T19:58:47.367Z,2.90
2022-11-19T20:01:16.981Z,2.90
2022-11-19T20:03:53.066Z,2.90
2022-11-19T20:06:23.888Z,2.90
2022-11-19T20:08:51.000Z,2.90
2022-11-19T20:11:20.607Z,2.90
2022-11-19T20:13:48.115Z,2.90
2022-11-19T20:16:18.404Z,2.90
2022-11-19T20:18:47.177Z,2.90
2022-11-19T20:21:21.549Z,2.90
2022-11-19T20:23:48.867Z,2.90
2022-11-19T20:26:20.894Z,2.90
2022-11-19T20:28:49.605Z,2.90
2022-11-19T20:31:19.650Z,2.80
2022-11-19T20:33:50.954Z,2.80
2022-11-19T20:36:18.414Z,2.80
2022-11-19T20:38:48.602Z,2.80
2022-11-19T20:41:36.072Z,2.80
2022-11-19T20:44:23.517Z,2.80
2022-11-19T20:46:52.056Z,2.80
2022-11-19T20:49:21.400Z,2.80
2022-11-19T20:51:49.634Z,2.80
2022-11-19T20:54:16.928Z,2.90
2022-11-19T20:56:44.060Z,2.90
2022-11-19T20:59:12.941Z,2.90
2022-11-19T21:01:40.613Z,2.90
2022-11-19T21:04:08.945Z,2.90
2022-11-19T21:06:36.115Z,2.90
2022-11-19T21:09:04.264Z,2.90
2022-11-19T21:11:31.637Z,2.90
2022-11-19T21:13:59.124Z,2.90
2022-11-19T21:16:26.935Z,2.80
2022-11-19T21:18:54.269Z,2.80
2022-11-19T21:21:24.447Z,2.80
2022-11-19T21:23:53.222Z,2.80
2022-11-19T21:26:23.635Z,2.80
2022-11-19T21:28:56.978Z,2.80
2022-11-19T21:31:49.651Z,2.80
2022-11-19T21:34:18.674Z,2.80
2022-11-19T21:36:47.555Z,2.80
2022-11-19T21:39:16.681Z,2.80
2022-11-19T21:41:44.452Z,2.80
2022-11-19T21:44:15.282Z,2.70
2022-11-19T21:46:45.455Z,2.70
2022-11-19T21:49:12.680Z,2.80
2022-11-19T21:51:39.863Z,2.70
2022-11-19T21:54:07.073Z,2.70
2022-11-19T21:56:38.556Z,2.70
2022-11-19T21:59:07.442Z,2.70
2022-11-19T22:01:35.238Z,2.60
2022-11-19T22:04:02.956Z,2.60
2022-11-19T22:06:32.214Z,2.60
2022-11-19T22:08:59.592Z,2.60
2022-11-19T22:11:29.706Z,2.60
2022-11-19T22:14:06.690Z,2.60
2022-11-19T22:16:38.329Z,2.60
2022-11-19T22:19:06.131Z,2.60
2022-11-19T22:21:33.948Z,2.60
2022-11-19T22:24:00.998Z,2.60
2022-11-19T22:26:29.089Z,2.60
2022-11-19T22:28:56.711Z,2.60
2022-11-19T22:31:24.989Z,2.60
2022-11-19T22:33:52.450Z,2.60
2022-11-19T22:36:21.454Z,2.50
2022-11-19T22:38:48.912Z,2.50
2022-11-19T22:41:18.399Z,2.50
2022-11-19T22:43:45.972Z,2.50
2022-11-19T22:46:13.900Z,2.50
2022-11-19T22:48:41.381Z,2.50
2022-11-19T22:51:30.162Z,2.50
2022-11-19T22:53:57.466Z,2.50
2022-11-19T22:56:27.707Z,2.40
2022-11-19T22:58:55.402Z,2.50
2022-11-19T23:01:25.418Z,2.50
2022-11-19T23:03:56.980Z,2.40
2022-11-19T23:06:24.967Z,2.50
2022-11-19T23:08:52.715Z,2.50
2022-11-19T23:11:42.369Z,2.50
2022-11-19T23:14:12.990Z,2.50
2022-11-19T23:16:40.918Z,2.50
2022-11-19T23:19:09.702Z,2.50
2022-11-19T23:21:37.428Z,2.50
2022-11-19T23:24:04.869Z,2.50
2022-11-19T23:26:33.429Z,2.50
2022-11-19T23:29:01.047Z,2.50
2022-11-19T23:31:29.595Z,2.50
2022-11-19T23:33:59.300Z,2.50
2022-11-19T23:36:28.288Z,2.50
2022-11-19T23:38:55.752Z,2.50
2022-11-19T23:41:23.404Z,2.60
2022-11-19T23:43:52.559Z,2.60
2022-11-19T23:46:22.830Z,2.60
2022-11-19T23:48:51.091Z,2.60
2022-11-19T23:51:24.026Z,2.60
2022-11-19T23:53:51.645Z,2.70
2022-11-19T23:56:23.529Z,2.70
2022-11-19T23:58:51.257Z,2.70
